sensor_id;sensor_type;location;lat;lon;timestamp;P1;durP1;ratioP1;P2;durP2;ratioP2
68812;SDS011;55808;48.112;11.552;2022-08-07T00:01:34;54.13;;;48.97;;
68812;SDS011;55808;48.112;11.552;2022-08-07T00:04:00;56.60;;;50.90;;
68812;SDS011;55808;48.112;11.552;2022-08-07T00:06:26;55.50;;;50.30;;
68812;SDS011;55808;48.112;11.552;2022-08-07T00:08:52;50.60;;;46.50;;
68812;SDS011;55808;48.112;11.552;2022-08-07T00:11:18;51.50;;;46.47;;
68812;SDS011;55808;48.112;11.552;2022-08-07T00:13:44;58.00;;;49.30;;
68812;SDS011;55808;48.112;11.552;2022-08-07T00:16:12;49.87;;;45.60;;
68812;SDS011;55808;48.112;11.552;2022-08-07T00:18:37;49.97;;;46.33;;
68812;SDS011;55808;48.112;11.552;2022-08-07T00:21:04;51.73;;;47.57;;
68812;SDS011;55808;48.112;11.552;2022-08-07T00:23:31;51.37;;;47.03;;
68812;SDS011;55808;48.112;11.552;2022-08-07T00:26:02;49.23;;;45.33;;
68812;SDS011;55808;48.112;11.552;2022-08-07T00:28:29;49.83;;;45.90;;
68812;SDS011;55808;48.112;11.552;2022-08-07T00:30:56;51.40;;;46.83;;
68812;SDS011;55808;48.112;11.552;2022-08-07T00:33:22;51.67;;;46.90;;
68812;SDS011;55808;48.112;11.552;2022-08-07T00:35:52;47.60;;;44.40;;
68812;SDS011;55808;48.112;11.552;2022-08-07T00:38:20;49.13;;;45.57;;
68812;SDS011;55808;48.112;11.552;2022-08-07T00:40:46;48.00;;;44.20;;
68812;SDS011;55808;48.112;11.552;2022-08-07T00:43:12;47.83;;;45.00;;
68812;SDS011;55808;48.112;11.552;2022-08-07T00:45:40;49.40;;;45.60;;
68812;SDS011;55808;48.112;11.552;2022-08-07T00:48:06;49.80;;;46.13;;
68812;SDS011;55808;48.112;11.552;2022-08-07T00:50:33;49.00;;;45.70;;
68812;SDS011;55808;48.112;11.552;2022-08-07T00:52:59;49.47;;;45.30;;
68812;SDS011;55808;48.112;11.552;2022-08-07T00:55:25;46.40;;;43.67;;
68812;SDS011;55808;48.112;11.552;2022-08-07T00:57:52;48.00;;;44.20;;
68812;SDS011;55808;48.112;11.552;2022-08-07T01:00:18;48.57;;;45.07;;
68812;SDS011;55808;48.112;11.552;2022-08-07T01:02:44;47.13;;;44.20;;
68812;SDS011;55808;48.112;11.552;2022-08-07T01:05:11;47.60;;;44.40;;
68812;SDS011;55808;48.112;11.552;2022-08-07T01:07:37;46.57;;;43.67;;
68812;SDS011;55808;48.112;11.552;2022-08-07T01:10:03;50.00;;;46.07;;
68812;SDS011;55808;48.112;11.552;2022-08-07T01:12:30;51.77;;;46.57;;
68812;SDS011;55808;48.112;11.552;2022-08-07T01:14:56;48.20;;;44.47;;
68812;SDS011;55808;48.112;11.552;2022-08-07T01:17:24;49.40;;;45.60;;
68812;SDS011;55808;48.112;11.552;2022-08-07T01:19:50;49.30;;;45.20;;
68812;SDS011;55808;48.112;11.552;2022-08-07T01:22:20;48.73;;;44.77;;
68812;SDS011;55808;48.112;11.552;2022-08-07T01:24:46;46.17;;;43.60;;
68812;SDS011;55808;48.112;11.552;2022-08-07T01:27:12;48.20;;;45.17;;
68812;SDS011;55808;48.112;11.552;2022-08-07T01:29:38;46.17;;;43.17;;
68812;SDS011;55808;48.112;11.552;2022-08-07T01:32:05;47.67;;;44.23;;
68812;SDS011;55808;48.112;11.552;2022-08-07T01:34:31;49.20;;;45.50;;
68812;SDS011;55808;48.112;11.552;2022-08-07T01:36:57;49.90;;;45.33;;
68812;SDS011;55808;48.112;11.552;2022-08-07T01:39:25;44.00;;;41.30;;
68812;SDS011;55808;48.112;11.552;2022-08-07T01:41:51;45.87;;;41.57;;
68812;SDS011;55808;48.112;11.552;2022-08-07T01:44:17;43.33;;;40.23;;
68812;SDS011;55808;48.112;11.552;2022-08-07T01:46:43;41.93;;;39.63;;
68812;SDS011;55808;48.112;11.552;2022-08-07T01:49:09;43.47;;;40.43;;
68812;SDS011;55808;48.112;11.552;2022-08-07T01:51:36;42.23;;;39.47;;
68812;SDS011;55808;48.112;11.552;2022-08-07T01:54:05;42.97;;;39.70;;
68812;SDS011;55808;48.112;11.552;2022-08-07T01:59:28;42.73;;;39.83;;
68812;SDS011;55808;48.112;11.552;2022-08-07T02:02:02;43.43;;;40.27;;
68812;SDS011;55808;48.112;11.552;2022-08-07T02:04:34;41.70;;;38.90;;
68812;SDS011;55808;48.112;11.552;2022-08-07T02:07:11;41.60;;;38.80;;
68812;SDS011;55808;48.112;11.552;2022-08-07T02:09:38;42.43;;;39.37;;
68812;SDS011;55808;48.112;11.552;2022-08-07T02:12:07;43.97;;;40.37;;
68812;SDS011;55808;48.112;11.552;2022-08-07T02:14:49;42.17;;;38.97;;
68812;SDS011;55808;48.112;11.552;2022-08-07T02:17:17;41.27;;;38.53;;
68812;SDS011;55808;48.112;11.552;2022-08-07T02:19:45;40.47;;;38.13;;
68812;SDS011;55808;48.112;11.552;2022-08-07T02:22:12;39.30;;;37.20;;
68812;SDS011;55808;48.112;11.552;2022-08-07T02:24:41;40.07;;;37.80;;
68812;SDS011;55808;48.112;11.552;2022-08-07T02:27:08;41.17;;;38.57;;
68812;SDS011;55808;48.112;11.552;2022-08-07T02:29:36;42.30;;;39.20;;
68812;SDS011;55808;48.112;11.552;2022-08-07T02:32:04;41.23;;;38.43;;
68812;SDS011;55808;48.112;11.552;2022-08-07T02:34:32;41.30;;;38.50;;
68812;SDS011;55808;48.112;11.552;2022-08-07T02:36:59;43.63;;;39.90;;
68812;SDS011;55808;48.112;11.552;2022-08-07T02:39:28;40.60;;;38.20;;
68812;SDS011;55808;48.112;11.552;2022-08-07T02:41:54;43.00;;;39.10;;
68812;SDS011;55808;48.112;11.552;2022-08-07T02:44:21;39.70;;;37.00;;
68812;SDS011;55808;48.112;11.552;2022-08-07T02:46:49;40.73;;;38.00;;
68812;SDS011;55808;48.112;11.552;2022-08-07T02:49:18;39.80;;;37.10;;
68812;SDS011;55808;48.112;11.552;2022-08-07T02:51:44;42.97;;;38.63;;
68812;SDS011;55808;48.112;11.552;2022-08-07T02:54:12;39.67;;;37.40;;
68812;SDS011;55808;48.112;11.552;2022-08-07T02:56:39;40.47;;;37.70;;
68812;SDS011;55808;48.112;11.552;2022-08-07T02:59:08;43.87;;;39.50;;
68812;SDS011;55808;48.112;11.552;2022-08-07T03:01:37;39.93;;;37.63;;
68812;SDS011;55808;48.112;11.552;2022-08-07T03:04:05;39.00;;;37.10;;
68812;SDS011;55808;48.112;11.552;2022-08-07T03:06:32;40.43;;;37.60;;
68812;SDS011;55808;48.112;11.552;2022-08-07T03:09:03;39.87;;;37.57;;
68812;SDS011;55808;48.112;11.552;2022-08-07T03:11:32;39.50;;;37.70;;
68812;SDS011;55808;48.112;11.552;2022-08-07T03:14:00;38.87;;;36.70;;
68812;SDS011;55808;48.112;11.552;2022-08-07T03:16:29;40.40;;;37.90;;
68812;SDS011;55808;48.112;11.552;2022-08-07T03:18:55;38.77;;;36.67;;
68812;SDS011;55808;48.112;11.552;2022-08-07T03:21:22;38.03;;;36.20;;
68812;SDS011;55808;48.112;11.552;2022-08-07T03:23:49;39.47;;;36.90;;
68812;SDS011;55808;48.112;11.552;2022-08-07T03:26:18;40.67;;;38.33;;
68812;SDS011;55808;48.112;11.552;2022-08-07T03:28:47;41.63;;;39.13;;
68812;SDS011;55808;48.112;11.552;2022-08-07T03:31:13;41.30;;;38.13;;
68812;SDS011;55808;48.112;11.552;2022-08-07T03:33:43;41.10;;;38.50;;
68812;SDS011;55808;48.112;11.552;2022-08-07T03:36:11;38.17;;;36.10;;
68812;SDS011;55808;48.112;11.552;2022-08-07T03:38:40;39.43;;;37.43;;
68812;SDS011;55808;48.112;11.552;2022-08-07T03:41:08;39.13;;;36.93;;
68812;SDS011;55808;48.112;11.552;2022-08-07T03:43:35;42.13;;;39.10;;
68812;SDS011;55808;48.112;11.552;2022-08-07T03:46:02;41.80;;;39.57;;
68812;SDS011;55808;48.112;11.552;2022-08-07T03:48:30;43.47;;;41.10;;
68812;SDS011;55808;48.112;11.552;2022-08-07T03:50:57;43.70;;;41.10;;
68812;SDS011;55808;48.112;11.552;2022-08-07T03:53:24;44.27;;;41.33;;
68812;SDS011;55808;48.112;11.552;2022-08-07T03:55:50;44.33;;;41.90;;
68812;SDS011;55808;48.112;11.552;2022-08-07T03:58:16;44.00;;;41.60;;
68812;SDS011;55808;48.112;11.552;2022-08-07T04:00:44;43.23;;;40.97;;
68812;SDS011;55808;48.112;11.552;2022-08-07T04:03:12;42.47;;;40.03;;
68812;SDS011;55808;48.112;11.552;2022-08-07T04:05:38;45.37;;;42.90;;
68812;SDS011;55808;48.112;11.552;2022-08-07T04:08:04;46.00;;;43.07;;
68812;SDS011;55808;48.112;11.552;2022-08-07T04:10:30;43.53;;;41.13;;
68812;SDS011;55808;48.112;11.552;2022-08-07T04:12:56;45.87;;;42.60;;
68812;SDS011;55808;48.112;11.552;2022-08-07T04:15:22;45.93;;;42.90;;
68812;SDS011;55808;48.112;11.552;2022-08-07T04:17:48;45.37;;;42.63;;
68812;SDS011;55808;48.112;11.552;2022-08-07T04:20:15;44.13;;;41.23;;
68812;SDS011;55808;48.112;11.552;2022-08-07T04:22:41;45.57;;;43.07;;
68812;SDS011;55808;48.112;11.552;2022-08-07T04:25:07;44.93;;;42.37;;
68812;SDS011;55808;48.112;11.552;2022-08-07T04:27:33;44.63;;;42.07;;
68812;SDS011;55808;48.112;11.552;2022-08-07T04:30:00;43.53;;;41.27;;
68812;SDS011;55808;48.112;11.552;2022-08-07T04:32:26;45.57;;;42.60;;
68812;SDS011;55808;48.112;11.552;2022-08-07T04:34:52;47.67;;;44.40;;
68812;SDS011;55808;48.112;11.552;2022-08-07T04:37:19;46.57;;;43.23;;
68812;SDS011;55808;48.112;11.552;2022-08-07T04:39:45;48.27;;;44.47;;
68812;SDS011;55808;48.112;11.552;2022-08-07T04:42:11;46.33;;;43.60;;
68812;SDS011;55808;48.112;11.552;2022-08-07T04:44:37;46.73;;;43.93;;
68812;SDS011;55808;48.112;11.552;2022-08-07T04:47:08;43.80;;;41.70;;
68812;SDS011;55808;48.112;11.552;2022-08-07T04:49:52;46.43;;;42.10;;
68812;SDS011;55808;48.112;11.552;2022-08-07T04:55:18;44.90;;;42.47;;
68812;SDS011;55808;48.112;11.552;2022-08-07T04:58:02;45.07;;;42.33;;
68812;SDS011;55808;48.112;11.552;2022-08-07T05:06:39;43.17;;;40.47;;
68812;SDS011;55808;48.112;11.552;2022-08-07T05:09:00;43.93;;;41.73;;
68812;SDS011;55808;48.112;11.552;2022-08-07T05:11:31;45.73;;;42.90;;
68812;SDS011;55808;48.112;11.552;2022-08-07T05:14:05;43.20;;;41.07;;
68812;SDS011;55808;48.112;11.552;2022-08-07T05:16:35;43.10;;;40.90;;
68812;SDS011;55808;48.112;11.552;2022-08-07T05:19:06;45.03;;;42.30;;
68812;SDS011;55808;48.112;11.552;2022-08-07T05:21:37;42.47;;;40.27;;
68812;SDS011;55808;48.112;11.552;2022-08-07T05:24:12;44.00;;;41.60;;
68812;SDS011;55808;48.112;11.552;2022-08-07T05:26:43;43.07;;;40.60;;
68812;SDS011;55808;48.112;11.552;2022-08-07T05:29:12;42.63;;;40.50;;
68812;SDS011;55808;48.112;11.552;2022-08-07T05:31:40;44.20;;;41.57;;
68812;SDS011;55808;48.112;11.552;2022-08-07T05:34:09;43.47;;;41.20;;
68812;SDS011;55808;48.112;11.552;2022-08-07T05:36:41;43.73;;;41.10;;
68812;SDS011;55808;48.112;11.552;2022-08-07T05:39:08;43.80;;;41.70;;
68812;SDS011;55808;48.112;11.552;2022-08-07T05:41:36;46.37;;;43.00;;
68812;SDS011;55808;48.112;11.552;2022-08-07T05:44:07;43.43;;;41.37;;
68812;SDS011;55808;48.112;11.552;2022-08-07T05:46:33;44.40;;;42.23;;
68812;SDS011;55808;48.112;11.552;2022-08-07T05:49:00;45.07;;;42.20;;
68812;SDS011;55808;48.112;11.552;2022-08-07T05:51:30;43.93;;;41.83;;
68812;SDS011;55808;48.112;11.552;2022-08-07T05:53:56;45.30;;;42.80;;
68812;SDS011;55808;48.112;11.552;2022-08-07T05:56:21;43.23;;;40.67;;
68812;SDS011;55808;48.112;11.552;2022-08-07T05:58:48;44.63;;;41.70;;
68812;SDS011;55808;48.112;11.552;2022-08-07T06:01:14;43.57;;;40.87;;
68812;SDS011;55808;48.112;11.552;2022-08-07T06:03:46;46.80;;;43.27;;
68812;SDS011;55808;48.112;11.552;2022-08-07T06:06:14;43.90;;;41.67;;
68812;SDS011;55808;48.112;11.552;2022-08-07T06:08:41;47.10;;;43.70;;
68812;SDS011;55808;48.112;11.552;2022-08-07T06:11:07;45.07;;;42.60;;
68812;SDS011;55808;48.112;11.552;2022-08-07T06:13:34;42.10;;;39.90;;
68812;SDS011;55808;48.112;11.552;2022-08-07T06:16:00;46.40;;;43.13;;
68812;SDS011;55808;48.112;11.552;2022-08-07T06:18:28;43.33;;;41.07;;
68812;SDS011;55808;48.112;11.552;2022-08-07T06:20:56;43.43;;;41.17;;
68812;SDS011;55808;48.112;11.552;2022-08-07T06:23:24;44.77;;;42.07;;
68812;SDS011;55808;48.112;11.552;2022-08-07T06:25:49;42.23;;;40.13;;
68812;SDS011;55808;48.112;11.552;2022-08-07T06:28:15;44.37;;;41.87;;
68812;SDS011;55808;48.112;11.552;2022-08-07T06:30:41;45.30;;;42.53;;
68812;SDS011;55808;48.112;11.552;2022-08-07T06:33:07;43.27;;;41.10;;
68812;SDS011;55808;48.112;11.552;2022-08-07T06:35:33;43.40;;;41.27;;
68812;SDS011;55808;48.112;11.552;2022-08-07T06:37:59;43.90;;;41.50;;
68812;SDS011;55808;48.112;11.552;2022-08-07T06:40:26;43.47;;;41.47;;
68812;SDS011;55808;48.112;11.552;2022-08-07T06:42:54;43.33;;;40.70;;
68812;SDS011;55808;48.112;11.552;2022-08-07T06:45:21;43.80;;;41.50;;
68812;SDS011;55808;48.112;11.552;2022-08-07T06:47:47;44.17;;;41.80;;
68812;SDS011;55808;48.112;11.552;2022-08-07T06:50:13;44.67;;;42.07;;
68812;SDS011;55808;48.112;11.552;2022-08-07T06:52:43;43.93;;;41.53;;
68812;SDS011;55808;48.112;11.552;2022-08-07T06:55:15;45.70;;;43.10;;
68812;SDS011;55808;48.112;11.552;2022-08-07T06:57:46;46.07;;;43.50;;
68812;SDS011;55808;48.112;11.552;2022-08-07T07:00:14;46.07;;;43.40;;
68812;SDS011;55808;48.112;11.552;2022-08-07T07:02:40;45.27;;;42.77;;
68812;SDS011;55808;48.112;11.552;2022-08-07T07:05:07;45.10;;;42.83;;
68812;SDS011;55808;48.112;11.552;2022-08-07T07:07:33;46.40;;;44.00;;
68812;SDS011;55808;48.112;11.552;2022-08-07T07:09:59;45.73;;;43.43;;
68812;SDS011;55808;48.112;11.552;2022-08-07T07:12:36;46.30;;;43.87;;
68812;SDS011;55808;48.112;11.552;2022-08-07T07:15:24;45.00;;;43.03;;
68812;SDS011;55808;48.112;11.552;2022-08-07T07:20:33;44.17;;;42.17;;
68812;SDS011;55808;48.112;11.552;2022-08-07T07:23:01;46.73;;;44.17;;
68812;SDS011;55808;48.112;11.552;2022-08-07T07:25:28;46.53;;;44.10;;
68812;SDS011;55808;48.112;11.552;2022-08-07T07:30:32;45.17;;;42.73;;
68812;SDS011;55808;48.112;11.552;2022-08-07T07:33:02;46.90;;;44.73;;
68812;SDS011;55808;48.112;11.552;2022-08-07T07:35:29;46.83;;;44.47;;
68812;SDS011;55808;48.112;11.552;2022-08-07T07:37:57;46.87;;;44.67;;
68812;SDS011;55808;48.112;11.552;2022-08-07T07:40:27;46.87;;;44.67;;
68812;SDS011;55808;48.112;11.552;2022-08-07T07:42:55;48.23;;;45.63;;
68812;SDS011;55808;48.112;11.552;2022-08-07T07:45:26;47.23;;;45.03;;
68812;SDS011;55808;48.112;11.552;2022-08-07T07:47:53;48.93;;;46.40;;
68812;SDS011;55808;48.112;11.552;2022-08-07T07:50:21;49.17;;;46.03;;
68812;SDS011;55808;48.112;11.552;2022-08-07T07:52:48;47.30;;;45.10;;
68812;SDS011;55808;48.112;11.552;2022-08-07T07:55:17;48.27;;;45.80;;
68812;SDS011;55808;48.112;11.552;2022-08-07T07:57:45;49.43;;;46.90;;
68812;SDS011;55808;48.112;11.552;2022-08-07T08:00:13;46.93;;;44.40;;
68812;SDS011;55808;48.112;11.552;2022-08-07T08:02:39;46.63;;;44.37;;
68812;SDS011;55808;48.112;11.552;2022-08-07T08:05:06;48.40;;;45.60;;
68812;SDS011;55808;48.112;11.552;2022-08-07T08:07:33;47.40;;;45.07;;
68812;SDS011;55808;48.112;11.552;2022-08-07T08:10:02;49.23;;;46.20;;
68812;SDS011;55808;48.112;11.552;2022-08-07T08:12:30;46.90;;;44.80;;
68812;SDS011;55808;48.112;11.552;2022-08-07T08:14:58;48.67;;;46.07;;
68812;SDS011;55808;48.112;11.552;2022-08-07T08:17:24;49.10;;;46.47;;
68812;SDS011;55808;48.112;11.552;2022-08-07T08:19:52;48.83;;;46.10;;
68812;SDS011;55808;48.112;11.552;2022-08-07T08:22:24;46.80;;;44.60;;
68812;SDS011;55808;48.112;11.552;2022-08-07T08:25:09;47.27;;;44.90;;
68812;SDS011;55808;48.112;11.552;2022-08-07T08:27:55;47.47;;;45.50;;
68812;SDS011;55808;48.112;11.552;2022-08-07T08:30:23;47.13;;;45.07;;
68812;SDS011;55808;48.112;11.552;2022-08-07T08:32:51;46.07;;;44.03;;
68812;SDS011;55808;48.112;11.552;2022-08-07T08:35:18;45.30;;;43.60;;
68812;SDS011;55808;48.112;11.552;2022-08-07T08:37:47;48.27;;;46.10;;
68812;SDS011;55808;48.112;11.552;2022-08-07T08:40:22;47.80;;;45.20;;
68812;SDS011;55808;48.112;11.552;2022-08-07T08:42:53;48.70;;;46.40;;
68812;SDS011;55808;48.112;11.552;2022-08-07T08:45:35;48.33;;;46.33;;
68812;SDS011;55808;48.112;11.552;2022-08-07T08:51:06;48.77;;;46.20;;
68812;SDS011;55808;48.112;11.552;2022-08-07T08:53:43;47.03;;;44.87;;
68812;SDS011;55808;48.112;11.552;2022-08-07T08:58:59;47.60;;;45.40;;
68812;SDS011;55808;48.112;11.552;2022-08-07T09:01:36;49.60;;;47.00;;
68812;SDS011;55808;48.112;11.552;2022-08-07T09:04:17;49.27;;;47.00;;
68812;SDS011;55808;48.112;11.552;2022-08-07T09:09:43;50.37;;;48.10;;
68812;SDS011;55808;48.112;11.552;2022-08-07T09:13:21;49.40;;;47.30;;
68812;SDS011;55808;48.112;11.552;2022-08-07T09:15:37;49.43;;;47.13;;
68812;SDS011;55808;48.112;11.552;2022-08-07T09:18:35;49.37;;;47.27;;
68812;SDS011;55808;48.112;11.552;2022-08-07T09:30:16;48.50;;;46.30;;
68812;SDS011;55808;48.112;11.552;2022-08-07T09:35:46;50.03;;;47.83;;
68812;SDS011;55808;48.112;11.552;2022-08-07T09:41:33;50.93;;;48.30;;
68812;SDS011;55808;48.112;11.552;2022-08-07T09:47:26;50.60;;;48.03;;
68812;SDS011;55808;48.112;11.552;2022-08-07T09:52:50;55.47;;;51.60;;
68812;SDS011;55808;48.112;11.552;2022-08-07T09:55:26;51.07;;;48.47;;
68812;SDS011;55808;48.112;11.552;2022-08-07T09:58:02;51.83;;;49.27;;
68812;SDS011;55808;48.112;11.552;2022-08-07T10:06:33;52.43;;;49.50;;
68812;SDS011;55808;48.112;11.552;2022-08-07T10:28:54;51.30;;;48.43;;
68812;SDS011;55808;48.112;11.552;2022-08-07T10:42:35;52.13;;;49.63;;
68812;SDS011;55808;48.112;11.552;2022-08-07T10:45:09;53.10;;;49.93;;
68812;SDS011;55808;48.112;11.552;2022-08-07T10:50:46;52.43;;;49.93;;
68812;SDS011;55808;48.112;11.552;2022-08-07T10:55:56;51.80;;;49.43;;
68812;SDS011;55808;48.112;11.552;2022-08-07T11:07:38;53.23;;;50.87;;
68812;SDS011;55808;48.112;11.552;2022-08-07T11:10:22;54.03;;;51.73;;
68812;SDS011;55808;48.112;11.552;2022-08-07T11:13:06;54.30;;;51.50;;
68812;SDS011;55808;48.112;11.552;2022-08-07T11:15:44;56.43;;;53.60;;
68812;SDS011;55808;48.112;11.552;2022-08-07T11:19:01;58.27;;;54.37;;
68812;SDS011;55808;48.112;11.552;2022-08-07T11:24:20;57.83;;;53.40;;
68812;SDS011;55808;48.112;11.552;2022-08-07T11:26:55;57.87;;;53.83;;
68812;SDS011;55808;48.112;11.552;2022-08-07T11:29:38;55.00;;;52.27;;
68812;SDS011;55808;48.112;11.552;2022-08-07T11:32:34;55.10;;;52.00;;
68812;SDS011;55808;48.112;11.552;2022-08-07T11:35:11;57.07;;;53.80;;
68812;SDS011;55808;48.112;11.552;2022-08-07T11:43:51;57.40;;;54.60;;
68812;SDS011;55808;48.112;11.552;2022-08-07T11:46:33;55.77;;;52.77;;
68812;SDS011;55808;48.112;11.552;2022-08-07T11:49:34;56.50;;;53.90;;
68812;SDS011;55808;48.112;11.552;2022-08-07T11:52:38;55.00;;;52.37;;
68812;SDS011;55808;48.112;11.552;2022-08-07T11:58:29;56.83;;;54.00;;
68812;SDS011;55808;48.112;11.552;2022-08-07T12:04:12;56.60;;;53.50;;
68812;SDS011;55808;48.112;11.552;2022-08-07T12:06:55;56.50;;;53.70;;
68812;SDS011;55808;48.112;11.552;2022-08-07T12:12:07;55.00;;;52.07;;
68812;SDS011;55808;48.112;11.552;2022-08-07T12:17:18;53.60;;;51.10;;
68812;SDS011;55808;48.112;11.552;2022-08-07T12:19:50;56.47;;;53.03;;
68812;SDS011;55808;48.112;11.552;2022-08-07T12:30:56;57.08;;;53.95;;
68812;SDS011;55808;48.112;11.552;2022-08-07T12:33:29;55.97;;;52.95;;
68812;SDS011;55808;48.112;11.552;2022-08-07T12:35:56;56.30;;;53.20;;
68812;SDS011;55808;48.112;11.552;2022-08-07T12:38:24;55.57;;;52.80;;
68812;SDS011;55808;48.112;11.552;2022-08-07T12:40:52;56.87;;;53.67;;
68812;SDS011;55808;48.112;11.552;2022-08-07T12:43:21;56.80;;;54.00;;
68812;SDS011;55808;48.112;11.552;2022-08-07T12:51:32;55.67;;;52.33;;
68812;SDS011;55808;48.112;11.552;2022-08-07T12:54:07;58.50;;;54.37;;
68812;SDS011;55808;48.112;11.552;2022-08-07T12:56:44;55.57;;;53.13;;
68812;SDS011;55808;48.112;11.552;2022-08-07T12:59:16;53.60;;;50.67;;
68812;SDS011;55808;48.112;11.552;2022-08-07T13:02:06;54.87;;;51.70;;
68812;SDS011;55808;48.112;11.552;2022-08-07T13:10:41;52.93;;;50.70;;
68812;SDS011;55808;48.112;11.552;2022-08-07T13:21:49;57.13;;;54.00;;
68812;SDS011;55808;48.112;11.552;2022-08-07T13:27:25;56.87;;;53.70;;
68812;SDS011;55808;48.112;11.552;2022-08-07T13:30:05;52.53;;;50.00;;
68812;SDS011;55808;48.112;11.552;2022-08-07T13:32:38;53.90;;;51.27;;
68812;SDS011;55808;48.112;11.552;2022-08-07T13:35:28;55.53;;;52.50;;
68812;SDS011;55808;48.112;11.552;2022-08-07T13:38:03;55.50;;;52.70;;
68812;SDS011;55808;48.112;11.552;2022-08-07T13:40:56;56.33;;;53.67;;
68812;SDS011;55808;48.112;11.552;2022-08-07T13:43:27;54.30;;;51.87;;
68812;SDS011;55808;48.112;11.552;2022-08-07T13:45:55;53.70;;;51.40;;
68812;SDS011;55808;48.112;11.552;2022-08-07T13:48:24;58.73;;;55.67;;
68812;SDS011;55808;48.112;11.552;2022-08-07T13:50:52;55.70;;;52.80;;
68812;SDS011;55808;48.112;11.552;2022-08-07T13:53:22;54.43;;;51.80;;
68812;SDS011;55808;48.112;11.552;2022-08-07T13:55:53;56.50;;;53.60;;
68812;SDS011;55808;48.112;11.552;2022-08-07T13:58:21;57.53;;;54.27;;
68812;SDS011;55808;48.112;11.552;2022-08-07T14:01:12;54.10;;;51.80;;
68812;SDS011;55808;48.112;11.552;2022-08-07T14:03:40;55.80;;;52.90;;
68812;SDS011;55808;48.112;11.552;2022-08-07T14:06:08;54.10;;;51.70;;
68812;SDS011;55808;48.112;11.552;2022-08-07T14:08:37;55.03;;;52.17;;
68812;SDS011;55808;48.112;11.552;2022-08-07T14:11:08;55.53;;;52.70;;
68812;SDS011;55808;48.112;11.552;2022-08-07T14:13:37;56.47;;;53.60;;
68812;SDS011;55808;48.112;11.552;2022-08-07T14:16:06;52.37;;;50.17;;
68812;SDS011;55808;48.112;11.552;2022-08-07T14:18:39;57.00;;;53.87;;
68812;SDS011;55808;48.112;11.552;2022-08-07T14:21:10;52.70;;;50.23;;
68812;SDS011;55808;48.112;11.552;2022-08-07T14:23:48;57.13;;;54.20;;
68812;SDS011;55808;48.112;11.552;2022-08-07T14:26:32;54.20;;;51.40;;
68812;SDS011;55808;48.112;11.552;2022-08-07T14:29:09;55.27;;;52.27;;
68812;SDS011;55808;48.112;11.552;2022-08-07T14:31:37;54.47;;;51.47;;
68812;SDS011;55808;48.112;11.552;2022-08-07T14:34:04;54.90;;;52.10;;
68812;SDS011;55808;48.112;11.552;2022-08-07T14:36:31;54.60;;;51.90;;
68812;SDS011;55808;48.112;11.552;2022-08-07T14:39:02;55.07;;;52.10;;
68812;SDS011;55808;48.112;11.552;2022-08-07T14:41:29;55.10;;;51.93;;
68812;SDS011;55808;48.112;11.552;2022-08-07T14:43:57;54.40;;;51.80;;
68812;SDS011;55808;48.112;11.552;2022-08-07T14:46:25;54.43;;;51.73;;
68812;SDS011;55808;48.112;11.552;2022-08-07T14:48:53;55.17;;;52.37;;
68812;SDS011;55808;48.112;11.552;2022-08-07T14:51:21;53.50;;;51.20;;
68812;SDS011;55808;48.112;11.552;2022-08-07T14:53:52;54.30;;;51.80;;
68812;SDS011;55808;48.112;11.552;2022-08-07T14:56:21;60.50;;;55.80;;
68812;SDS011;55808;48.112;11.552;2022-08-07T14:58:50;59.73;;;55.50;;
68812;SDS011;55808;48.112;11.552;2022-08-07T15:01:18;57.03;;;53.67;;
68812;SDS011;55808;48.112;11.552;2022-08-07T15:03:48;59.20;;;54.90;;
68812;SDS011;55808;48.112;11.552;2022-08-07T15:06:20;57.07;;;53.77;;
68812;SDS011;55808;48.112;11.552;2022-08-07T15:08:48;57.00;;;53.53;;
68812;SDS011;55808;48.112;11.552;2022-08-07T15:11:17;57.00;;;53.83;;
68812;SDS011;55808;48.112;11.552;2022-08-07T15:13:55;54.50;;;51.30;;
68812;SDS011;55808;48.112;11.552;2022-08-07T15:16:32;54.63;;;51.97;;
68812;SDS011;55808;48.112;11.552;2022-08-07T15:19:12;53.03;;;50.67;;
68812;SDS011;55808;48.112;11.552;2022-08-07T15:21:48;54.93;;;52.17;;
68812;SDS011;55808;48.112;11.552;2022-08-07T15:24:19;54.67;;;51.87;;
68812;SDS011;55808;48.112;11.552;2022-08-07T15:27:02;54.00;;;51.00;;
68812;SDS011;55808;48.112;11.552;2022-08-07T15:29:34;56.10;;;52.97;;
68812;SDS011;55808;48.112;11.552;2022-08-07T15:32:03;55.27;;;52.20;;
68812;SDS011;55808;48.112;11.552;2022-08-07T15:34:36;53.80;;;50.97;;
68812;SDS011;55808;48.112;11.552;2022-08-07T15:37:05;53.83;;;50.93;;
68812;SDS011;55808;48.112;11.552;2022-08-07T15:39:38;54.73;;;51.80;;
68812;SDS011;55808;48.112;11.552;2022-08-07T15:42:09;55.30;;;52.03;;
68812;SDS011;55808;48.112;11.552;2022-08-07T15:45:12;55.27;;;52.20;;
68812;SDS011;55808;48.112;11.552;2022-08-07T15:47:42;55.77;;;52.37;;
68812;SDS011;55808;48.112;11.552;2022-08-07T15:50:15;57.60;;;53.60;;
68812;SDS011;55808;48.112;11.552;2022-08-07T15:52:43;55.10;;;51.93;;
68812;SDS011;55808;48.112;11.552;2022-08-07T15:55:11;54.63;;;51.33;;
68812;SDS011;55808;48.112;11.552;2022-08-07T15:57:50;53.27;;;50.60;;
68812;SDS011;55808;48.112;11.552;2022-08-07T16:00:18;56.37;;;52.77;;
68812;SDS011;55808;48.112;11.552;2022-08-07T16:02:45;54.47;;;51.40;;
68812;SDS011;55808;48.112;11.552;2022-08-07T16:05:18;53.27;;;50.27;;
68812;SDS011;55808;48.112;11.552;2022-08-07T16:07:47;53.33;;;50.77;;
68812;SDS011;55808;48.112;11.552;2022-08-07T16:10:26;55.00;;;51.60;;
68812;SDS011;55808;48.112;11.552;2022-08-07T16:13:00;55.30;;;52.20;;
68812;SDS011;55808;48.112;11.552;2022-08-07T16:21:37;59.17;;;54.77;;
68812;SDS011;55808;48.112;11.552;2022-08-07T16:24:32;55.57;;;52.17;;
68812;SDS011;55808;48.112;11.552;2022-08-07T16:27:04;52.57;;;49.37;;
68812;SDS011;55808;48.112;11.552;2022-08-07T16:32:42;56.53;;;52.77;;
68812;SDS011;55808;48.112;11.552;2022-08-07T16:35:17;54.47;;;51.40;;
68812;SDS011;55808;48.112;11.552;2022-08-07T16:57:58;55.77;;;52.10;;
68812;SDS011;55808;48.112;11.552;2022-08-07T17:00:32;56.03;;;52.37;;
68812;SDS011;55808;48.112;11.552;2022-08-07T17:05:45;56.43;;;52.70;;
68812;SDS011;55808;48.112;11.552;2022-08-07T17:08:18;54.50;;;51.77;;
68812;SDS011;55808;48.112;11.552;2022-08-07T17:10:57;55.13;;;51.97;;
68812;SDS011;55808;48.112;11.552;2022-08-07T17:13:38;57.83;;;53.40;;
68812;SDS011;55808;48.112;11.552;2022-08-07T17:16:14;56.70;;;52.90;;
68812;SDS011;55808;48.112;11.552;2022-08-07T17:18:58;54.87;;;51.40;;
68812;SDS011;55808;48.112;11.552;2022-08-07T17:21:39;57.03;;;53.53;;
68812;SDS011;55808;48.112;11.552;2022-08-07T17:27:03;55.77;;;52.57;;
68812;SDS011;55808;48.112;11.552;2022-08-07T17:32:18;54.70;;;51.47;;
68812;SDS011;55808;48.112;11.552;2022-08-07T17:34:53;55.27;;;52.10;;
68812;SDS011;55808;48.112;11.552;2022-08-07T17:37:24;54.73;;;51.67;;
68812;SDS011;55808;48.112;11.552;2022-08-07T17:42:39;55.40;;;52.23;;